sensor_id;sensor_type;location;lat;lon;timestamp;temperature;humidity
5118;DHT22;2578;51.622;7.046;2022-07-05T00:01:00;12.90;99.90
5118;DHT22;2578;51.622;7.046;2022-07-05T00:03:27;12.90;99.90
5118;DHT22;2578;51.622;7.046;2022-07-05T00:05:53;12.80;99.90
5118;DHT22;2578;51.622;7.046;2022-07-05T00:08:19;12.80;99.90
5118;DHT22;2578;51.622;7.046;2022-07-05T00:10:45;12.70;99.90
5118;DHT22;2578;51.622;7.046;2022-07-05T00:13:11;12.50;99.90
5118;DHT22;2578;51.622;7.046;2022-07-05T00:15:37;12.50;99.90
5118;DHT22;2578;51.622;7.046;2022-07-05T00:18:03;12.40;99.90
5118;DHT22;2578;51.622;7.046;2022-07-05T00:20:28;12.30;99.90
5118;DHT22;2578;51.622;7.046;2022-07-05T00:22:54;12.30;99.90
5118;DHT22;2578;51.622;7.046;2022-07-05T00:25:20;12.20;99.90
5118;DHT22;2578;51.622;7.046;2022-07-05T00:27:45;12.20;99.90
5118;DHT22;2578;51.622;7.046;2022-07-05T00:30:12;12.30;99.90
5118;DHT22;2578;51.622;7.046;2022-07-05T00:32:38;12.30;99.90
5118;DHT22;2578;51.622;7.046;2022-07-05T00:35:05;12.30;99.90
5118;DHT22;2578;51.622;7.046;2022-07-05T00:37:31;12.40;99.90
5118;DHT22;2578;51.622;7.046;2022-07-05T00:39:56;12.50;99.90
5118;DHT22;2578;51.622;7.046;2022-07-05T00:42:22;12.60;99.90
5118;DHT22;2578;51.622;7.046;2022-07-05T00:44:48;12.70;99.90
5118;DHT22;2578;51.622;7.046;2022-07-05T00:47:13;12.80;99.90
5118;DHT22;2578;51.622;7.046;2022-07-05T00:49:40;12.80;99.90
5118;DHT22;2578;51.622;7.046;2022-07-05T00:52:07;12.90;99.90
5118;DHT22;2578;51.622;7.046;2022-07-05T00:54:34;13.00;99.90
5118;DHT22;2578;51.622;7.046;2022-07-05T00:57:01;13.00;99.90
5118;DHT22;2578;51.622;7.046;2022-07-05T00:59:28;13.10;99.90
5118;DHT22;2578;51.622;7.046;2022-07-05T01:01:54;13.10;99.90
5118;DHT22;2578;51.622;7.046;2022-07-05T01:04:20;13.10;99.90
5118;DHT22;2578;51.622;7.046;2022-07-05T01:06:48;13.20;99.90
5118;DHT22;2578;51.622;7.046;2022-07-05T01:09:15;13.20;99.90
5118;DHT22;2578;51.622;7.046;2022-07-05T01:11:45;13.10;99.90
5118;DHT22;2578;51.622;7.046;2022-07-05T01:14:13;13.10;99.90
5118;DHT22;2578;51.622;7.046;2022-07-05T01:16:40;13.10;99.90
5118;DHT22;2578;51.622;7.046;2022-07-05T01:19:06;13.20;99.90
5118;DHT22;2578;51.622;7.046;2022-07-05T01:21:35;13.10;99.90
5118;DHT22;2578;51.622;7.046;2022-07-05T01:24:02;13.10;99.90
5118;DHT22;2578;51.622;7.046;2022-07-05T01:26:29;13.20;99.90
5118;DHT22;2578;51.622;7.046;2022-07-05T01:28:55;13.20;99.90
5118;DHT22;2578;51.622;7.046;2022-07-05T01:31:20;13.20;99.90
5118;DHT22;2578;51.622;7.046;2022-07-05T01:33:47;13.20;99.90
5118;DHT22;2578;51.622;7.046;2022-07-05T01:36:13;13.30;99.90
5118;DHT22;2578;51.622;7.046;2022-07-05T01:38:39;13.30;99.90
5118;DHT22;2578;51.622;7.046;2022-07-05T01:41:05;13.30;99.90
5118;DHT22;2578;51.622;7.046;2022-07-05T01:43:30;13.40;99.90
5118;DHT22;2578;51.622;7.046;2022-07-05T01:45:58;13.30;99.90
5118;DHT22;2578;51.622;7.046;2022-07-05T01:48:28;13.20;99.90
5118;DHT22;2578;51.622;7.046;2022-07-05T01:50:59;13.20;99.90
5118;DHT22;2578;51.622;7.046;2022-07-05T01:53:28;13.20;99.90
5118;DHT22;2578;51.622;7.046;2022-07-05T01:55:56;13.20;99.90
5118;DHT22;2578;51.622;7.046;2022-07-05T01:58:24;13.10;99.90
5118;DHT22;2578;51.622;7.046;2022-07-05T02:00:52;13.00;99.90
5118;DHT22;2578;51.622;7.046;2022-07-05T02:03:18;13.00;99.90
5118;DHT22;2578;51.622;7.046;2022-07-05T02:05:44;13.10;99.90
5118;DHT22;2578;51.622;7.046;2022-07-05T02:08:10;13.10;99.90
5118;DHT22;2578;51.622;7.046;2022-07-05T02:10:37;13.10;99.90
5118;DHT22;2578;51.622;7.046;2022-07-05T02:13:03;13.10;99.90
5118;DHT22;2578;51.622;7.046;2022-07-05T02:15:33;13.10;99.90
5118;DHT22;2578;51.622;7.046;2022-07-05T02:18:00;13.00;99.90
5118;DHT22;2578;51.622;7.046;2022-07-05T02:20:27;12.90;99.90
5118;DHT22;2578;51.622;7.046;2022-07-05T02:22:53;12.80;99.90
5118;DHT22;2578;51.622;7.046;2022-07-05T02:25:18;12.30;99.90
5118;DHT22;2578;51.622;7.046;2022-07-05T02:27:44;12.80;99.90
5118;DHT22;2578;51.622;7.046;2022-07-05T02:30:11;12.80;99.90
5118;DHT22;2578;51.622;7.046;2022-07-05T02:32:36;12.70;99.90
5118;DHT22;2578;51.622;7.046;2022-07-05T02:35:03;12.60;99.90
5118;DHT22;2578;51.622;7.046;2022-07-05T02:37:29;12.60;99.90
5118;DHT22;2578;51.622;7.046;2022-07-05T02:39:55;12.50;99.90
5118;DHT22;2578;51.622;7.046;2022-07-05T02:42:20;12.50;99.90
5118;DHT22;2578;51.622;7.046;2022-07-05T02:44:46;12.50;99.90
5118;DHT22;2578;51.622;7.046;2022-07-05T02:47:12;12.50;99.90
5118;DHT22;2578;51.622;7.046;2022-07-05T02:49:37;12.40;99.90
5118;DHT22;2578;51.622;7.046;2022-07-05T02:52:03;12.30;99.90
5118;DHT22;2578;51.622;7.046;2022-07-05T02:54:29;12.30;99.90
5118;DHT22;2578;51.622;7.046;2022-07-05T02:56:55;12.10;99.90
5118;DHT22;2578;51.622;7.046;2022-07-05T02:59:20;12.10;99.90
5118;DHT22;2578;51.622;7.046;2022-07-05T03:01:46;12.10;99.90
5118;DHT22;2578;51.622;7.046;2022-07-05T03:04:11;12.10;99.90
5118;DHT22;2578;51.622;7.046;2022-07-05T03:06:37;12.10;99.90
5118;DHT22;2578;51.622;7.046;2022-07-05T03:09:03;12.10;99.90
5118;DHT22;2578;51.622;7.046;2022-07-05T03:11:29;12.10;99.90
5118;DHT22;2578;51.622;7.046;2022-07-05T03:13:55;12.10;99.90
5118;DHT22;2578;51.622;7.046;2022-07-05T03:16:20;12.30;99.90
5118;DHT22;2578;51.622;7.046;2022-07-05T03:18:49;12.30;99.90
5118;DHT22;2578;51.622;7.046;2022-07-05T03:21:14;12.30;99.90
5118;DHT22;2578;51.622;7.046;2022-07-05T03:23:40;12.30;99.90
5118;DHT22;2578;51.622;7.046;2022-07-05T03:26:05;12.30;99.90
5118;DHT22;2578;51.622;7.046;2022-07-05T03:28:32;12.30;99.90
5118;DHT22;2578;51.622;7.046;2022-07-05T03:30:57;12.10;99.90
5118;DHT22;2578;51.622;7.046;2022-07-05T03:33:23;12.10;99.90
5118;DHT22;2578;51.622;7.046;2022-07-05T03:35:49;12.10;99.90
5118;DHT22;2578;51.622;7.046;2022-07-05T03:38:14;11.90;99.90
5118;DHT22;2578;51.622;7.046;2022-07-05T03:40:40;11.90;99.90
5118;DHT22;2578;51.622;7.046;2022-07-05T03:43:05;11.80;99.90
5118;DHT22;2578;51.622;7.046;2022-07-05T03:45:31;11.80;99.90
5118;DHT22;2578;51.622;7.046;2022-07-05T03:47:58;11.70;99.90
5118;DHT22;2578;51.622;7.046;2022-07-05T03:50:24;11.70;99.90
5118;DHT22;2578;51.622;7.046;2022-07-05T03:52:50;11.60;99.90
5118;DHT22;2578;51.622;7.046;2022-07-05T03:55:15;11.60;99.90
5118;DHT22;2578;51.622;7.046;2022-07-05T03:57:41;11.60;99.90
5118;DHT22;2578;51.622;7.046;2022-07-05T04:00:07;11.60;99.90
5118;DHT22;2578;51.622;7.046;2022-07-05T04:02:33;11.60;99.90
5118;DHT22;2578;51.622;7.046;2022-07-05T04:04:58;11.60;99.90
5118;DHT22;2578;51.622;7.046;2022-07-05T04:07:24;11.60;99.90
5118;DHT22;2578;51.622;7.046;2022-07-05T04:09:49;11.60;99.90
5118;DHT22;2578;51.622;7.046;2022-07-05T04:12:15;11.60;99.90
5118;DHT22;2578;51.622;7.046;2022-07-05T04:14:41;11.70;99.90
5118;DHT22;2578;51.622;7.046;2022-07-05T04:17:06;11.80;99.90
5118;DHT22;2578;51.622;7.046;2022-07-05T04:19:32;11.80;99.90
5118;DHT22;2578;51.622;7.046;2022-07-05T04:21:58;11.90;99.90
5118;DHT22;2578;51.622;7.046;2022-07-05T04:24:24;12.00;99.90
5118;DHT22;2578;51.622;7.046;2022-07-05T04:26:49;12.10;99.90
5118;DHT22;2578;51.622;7.046;2022-07-05T04:29:15;12.20;99.90
5118;DHT22;2578;51.622;7.046;2022-07-05T04:31:41;12.50;99.90
5118;DHT22;2578;51.622;7.046;2022-07-05T04:34:06;12.80;99.90
5118;DHT22;2578;51.622;7.046;2022-07-05T04:36:32;12.60;99.90
5118;DHT22;2578;51.622;7.046;2022-07-05T04:38:57;12.60;99.90
5118;DHT22;2578;51.622;7.046;2022-07-05T04:41:23;12.70;99.90
5118;DHT22;2578;51.622;7.046;2022-07-05T04:43:49;13.10;99.90
5118;DHT22;2578;51.622;7.046;2022-07-05T04:46:14;12.80;99.90
5118;DHT22;2578;51.622;7.046;2022-07-05T04:48:40;13.10;99.90
5118;DHT22;2578;51.622;7.046;2022-07-05T04:51:06;13.10;99.90
5118;DHT22;2578;51.622;7.046;2022-07-05T04:53:31;13.10;99.90
5118;DHT22;2578;51.622;7.046;2022-07-05T04:55:57;13.30;99.90
5118;DHT22;2578;51.622;7.046;2022-07-05T04:58:22;13.50;99.90
5118;DHT22;2578;51.622;7.046;2022-07-05T05:00:48;13.80;99.90
5118;DHT22;2578;51.622;7.046;2022-07-05T05:03:14;14.40;99.90
5118;DHT22;2578;51.622;7.046;2022-07-05T05:05:39;15.00;99.90
5118;DHT22;2578;51.622;7.046;2022-07-05T05:08:05;15.60;99.90
5118;DHT22;2578;51.622;7.046;2022-07-05T05:10:31;16.10;99.90
5118;DHT22;2578;51.622;7.046;2022-07-05T05:12:56;16.60;99.90
5118;DHT22;2578;51.622;7.046;2022-07-05T05:15:22;16.80;99.90
5118;DHT22;2578;51.622;7.046;2022-07-05T05:17:47;16.80;99.90
5118;DHT22;2578;51.622;7.046;2022-07-05T05:20:18;16.80;99.90
5118;DHT22;2578;51.622;7.046;2022-07-05T05:22:45;17.20;99.90
5118;DHT22;2578;51.622;7.046;2022-07-05T05:25:11;17.60;99.90
5118;DHT22;2578;51.622;7.046;2022-07-05T05:27:55;17.80;99.90
5118;DHT22;2578;51.622;7.046;2022-07-05T05:30:21;17.90;99.90
5118;DHT22;2578;51.622;7.046;2022-07-05T05:32:47;18.00;99.90
5118;DHT22;2578;51.622;7.046;2022-07-05T05:35:13;18.40;99.90
5118;DHT22;2578;51.622;7.046;2022-07-05T05:37:51;18.90;99.90
5118;DHT22;2578;51.622;7.046;2022-07-05T05:40:17;19.00;99.90
5118;DHT22;2578;51.622;7.046;2022-07-05T05:42:43;19.20;99.90
5118;DHT22;2578;51.622;7.046;2022-07-05T05:45:09;19.50;99.90
5118;DHT22;2578;51.622;7.046;2022-07-05T05:47:46;20.00;99.90
5118;DHT22;2578;51.622;7.046;2022-07-05T05:50:13;20.50;99.90
5118;DHT22;2578;51.622;7.046;2022-07-05T05:52:38;21.10;99.90
5118;DHT22;2578;51.622;7.046;2022-07-05T05:55:05;21.10;99.90
5118;DHT22;2578;51.622;7.046;2022-07-05T05:57:33;21.10;99.90
5118;DHT22;2578;51.622;7.046;2022-07-05T05:59:58;20.70;99.90
5118;DHT22;2578;51.622;7.046;2022-07-05T06:02:24;20.50;99.90
5118;DHT22;2578;51.622;7.046;2022-07-05T06:04:49;20.40;99.90
5118;DHT22;2578;51.622;7.046;2022-07-05T06:07:15;20.20;99.90
5118;DHT22;2578;51.622;7.046;2022-07-05T06:09:41;20.10;99.90
5118;DHT22;2578;51.622;7.046;2022-07-05T06:12:07;19.90;99.90
5118;DHT22;2578;51.622;7.046;2022-07-05T06:14:32;19.70;99.90
5118;DHT22;2578;51.622;7.046;2022-07-05T06:16:58;19.70;99.90
5118;DHT22;2578;51.622;7.046;2022-07-05T06:19:23;19.80;99.90
5118;DHT22;2578;51.622;7.046;2022-07-05T06:21:49;19.80;99.90
5118;DHT22;2578;51.622;7.046;2022-07-05T06:24:15;19.80;99.90
5118;DHT22;2578;51.622;7.046;2022-07-05T06:26:40;19.70;99.90
5118;DHT22;2578;51.622;7.046;2022-07-05T06:29:06;19.60;99.90
5118;DHT22;2578;51.622;7.046;2022-07-05T06:31:31;19.50;99.90
5118;DHT22;2578;51.622;7.046;2022-07-05T06:33:57;19.60;99.90
5118;DHT22;2578;51.622;7.046;2022-07-05T06:36:23;19.30;99.90
5118;DHT22;2578;51.622;7.046;2022-07-05T06:38:48;19.40;99.90
5118;DHT22;2578;51.622;7.046;2022-07-05T06:41:14;19.80;99.90
5118;DHT22;2578;51.622;7.046;2022-07-05T06:43:39;19.90;99.90
5118;DHT22;2578;51.622;7.046;2022-07-05T06:46:05;20.10;99.90
5118;DHT22;2578;51.622;7.046;2022-07-05T06:50:57;20.50;99.90
5118;DHT22;2578;51.622;7.046;2022-07-05T06:53:22;20.60;99.90
5118;DHT22;2578;51.622;7.046;2022-07-05T06:55:48;20.70;99.90
5118;DHT22;2578;51.622;7.046;2022-07-05T06:58:13;20.70;99.90
5118;DHT22;2578;51.622;7.046;2022-07-05T07:00:40;20.50;99.90
5118;DHT22;2578;51.622;7.046;2022-07-05T07:03:06;20.60;99.90
5118;DHT22;2578;51.622;7.046;2022-07-05T07:05:32;21.00;99.90
5118;DHT22;2578;51.622;7.046;2022-07-05T07:07:57;21.50;99.90
5118;DHT22;2578;51.622;7.046;2022-07-05T07:13:08;22.60;99.90
5118;DHT22;2578;51.622;7.046;2022-07-05T07:15:33;22.60;82.30
5118;DHT22;2578;51.622;7.046;2022-07-05T07:17:59;22.60;76.20
5118;DHT22;2578;51.622;7.046;2022-07-05T07:20:25;22.50;85.70
5118;DHT22;2578;51.622;7.046;2022-07-05T07:22:51;22.00;73.60
5118;DHT22;2578;51.622;7.046;2022-07-05T07:25:17;21.70;78.00
5118;DHT22;2578;51.622;7.046;2022-07-05T07:27:47;21.90;93.80
5118;DHT22;2578;51.622;7.046;2022-07-05T07:30:14;21.80;94.10
5118;DHT22;2578;51.622;7.046;2022-07-05T07:32:40;22.00;93.70
5118;DHT22;2578;51.622;7.046;2022-07-05T07:35:07;21.90;96.40
5118;DHT22;2578;51.622;7.046;2022-07-05T07:37:34;21.80;95.70
5118;DHT22;2578;51.622;7.046;2022-07-05T07:40:00;21.90;95.50
5118;DHT22;2578;51.622;7.046;2022-07-05T07:42:27;21.90;97.60
5118;DHT22;2578;51.622;7.046;2022-07-05T07:44:53;21.90;91.70
5118;DHT22;2578;51.622;7.046;2022-07-05T07:47:18;22.10;92.90
5118;DHT22;2578;51.622;7.046;2022-07-05T07:49:44;21.90;91.40
5118;DHT22;2578;51.622;7.046;2022-07-05T07:52:10;22.10;74.80
5118;DHT22;2578;51.622;7.046;2022-07-05T07:54:35;22.30;69.50
5118;DHT22;2578;51.622;7.046;2022-07-05T07:57:01;22.60;59.80
5118;DHT22;2578;51.622;7.046;2022-07-05T07:59:29;22.70;60.80
5118;DHT22;2578;51.622;7.046;2022-07-05T08:01:55;22.80;53.90
5118;DHT22;2578;51.622;7.046;2022-07-05T08:04:20;22.90;53.20
5118;DHT22;2578;51.622;7.046;2022-07-05T08:06:46;23.40;58.20
5118;DHT22;2578;51.622;7.046;2022-07-05T08:09:13;23.90;53.10
5118;DHT22;2578;51.622;7.046;2022-07-05T08:11:39;23.60;37.70
5118;DHT22;2578;51.622;7.046;2022-07-05T08:14:04;23.40;34.30
5118;DHT22;2578;51.622;7.046;2022-07-05T08:16:30;23.20;54.00
5118;DHT22;2578;51.622;7.046;2022-07-05T08:18:55;23.10;41.40
5118;DHT22;2578;51.622;7.046;2022-07-05T08:21:40;22.70;43.10
5118;DHT22;2578;51.622;7.046;2022-07-05T08:24:12;22.70;43.60
5118;DHT22;2578;51.622;7.046;2022-07-05T08:26:39;22.60;49.50
5118;DHT22;2578;51.622;7.046;2022-07-05T08:29:07;22.60;56.30
5118;DHT22;2578;51.622;7.046;2022-07-05T08:31:35;22.10;56.30
5118;DHT22;2578;51.622;7.046;2022-07-05T08:34:01;22.10;56.70
5118;DHT22;2578;51.622;7.046;2022-07-05T08:36:27;22.00;52.70
5118;DHT22;2578;51.622;7.046;2022-07-05T08:38:52;22.40;44.70
5118;DHT22;2578;51.622;7.046;2022-07-05T08:41:20;23.20;45.70
5118;DHT22;2578;51.622;7.046;2022-07-05T08:43:47;23.20;45.70
5118;DHT22;2578;51.622;7.046;2022-07-05T08:46:17;23.10;47.00
5118;DHT22;2578;51.622;7.046;2022-07-05T08:48:44;22.90;47.90
5118;DHT22;2578;51.622;7.046;2022-07-05T08:53:40;22.60;43.30
5118;DHT22;2578;51.622;7.046;2022-07-05T08:56:07;22.00;53.30
5118;DHT22;2578;51.622;7.046;2022-07-05T09:03:33;22.10;52.70
5118;DHT22;2578;51.622;7.046;2022-07-05T09:06:01;22.70;47.20
5118;DHT22;2578;51.622;7.046;2022-07-05T09:08:30;23.30;39.10
5118;DHT22;2578;51.622;7.046;2022-07-05T09:11:01;23.40;43.20
5118;DHT22;2578;51.622;7.046;2022-07-05T09:13:33;23.40;48.50
5118;DHT22;2578;51.622;7.046;2022-07-05T09:15:59;23.20;37.50
5118;DHT22;2578;51.622;7.046;2022-07-05T09:21:26;24.30;27.30
5118;DHT22;2578;51.622;7.046;2022-07-05T09:24:03;24.20;22.70
5118;DHT22;2578;51.622;7.046;2022-07-05T09:26:39;23.60;23.10
5118;DHT22;2578;51.622;7.046;2022-07-05T09:29:10;23.50;26.00
5118;DHT22;2578;51.622;7.046;2022-07-05T09:31:38;23.40;27.10
5118;DHT22;2578;51.622;7.046;2022-07-05T09:34:13;23.40;27.70
5118;DHT22;2578;51.622;7.046;2022-07-05T09:36:53;23.30;30.70
5118;DHT22;2578;51.622;7.046;2022-07-05T09:39:36;23.10;31.50
5118;DHT22;2578;51.622;7.046;2022-07-05T09:42:20;23.30;50.70
5118;DHT22;2578;51.622;7.046;2022-07-05T09:44:47;23.30;28.90
5118;DHT22;2578;51.622;7.046;2022-07-05T09:47:18;23.50;28.20
5118;DHT22;2578;51.622;7.046;2022-07-05T09:49:48;23.90;14.00
5118;DHT22;2578;51.622;7.046;2022-07-05T09:52:32;23.80;10.00
5118;DHT22;2578;51.622;7.046;2022-07-05T09:57:33;23.70;13.60
5118;DHT22;2578;51.622;7.046;2022-07-05T10:00:00;24.00;1.30
5118;DHT22;2578;51.622;7.046;2022-07-05T10:02:40;23.80;1.00
5118;DHT22;2578;51.622;7.046;2022-07-05T10:05:13;23.80;1.60
5118;DHT22;2578;51.622;7.046;2022-07-05T10:07:46;23.20;2.60
5118;DHT22;2578;51.622;7.046;2022-07-05T10:10:14;22.60;4.80
5118;DHT22;2578;51.622;7.046;2022-07-05T10:12:42;22.70;7.40
5118;DHT22;2578;51.622;7.046;2022-07-05T10:15:10;22.90;1.00
5118;DHT22;2578;51.622;7.046;2022-07-05T10:17:39;22.90;17.10
5118;DHT22;2578;51.622;7.046;2022-07-05T10:20:17;23.40;2.60
5118;DHT22;2578;51.622;7.046;2022-07-05T10:22:44;23.50;1.00
5118;DHT22;2578;51.622;7.046;2022-07-05T10:25:11;22.90;1.00
5118;DHT22;2578;51.622;7.046;2022-07-05T10:27:37;22.90;1.00
5118;DHT22;2578;51.622;7.046;2022-07-05T10:30:04;23.20;1.00
5118;DHT22;2578;51.622;7.046;2022-07-05T10:32:30;23.90;4.50
5118;DHT22;2578;51.622;7.046;2022-07-05T10:34:58;23.90;8.80
5118;DHT22;2578;51.622;7.046;2022-07-05T10:37:26;21.90;1.00
5118;DHT22;2578;51.622;7.046;2022-07-05T10:39:54;24.40;4.70
5118;DHT22;2578;51.622;7.046;2022-07-05T10:42:22;24.50;5.00
5118;DHT22;2578;51.622;7.046;2022-07-05T10:44:49;24.50;3.50
5118;DHT22;2578;51.622;7.046;2022-07-05T10:47:14;23.70;1.00
5118;DHT22;2578;51.622;7.046;2022-07-05T10:49:40;22.80;3.90
5118;DHT22;2578;51.622;7.046;2022-07-05T10:52:23;22.20;10.50
5118;DHT22;2578;51.622;7.046;2022-07-05T10:57:43;22.00;19.00
5118;DHT22;2578;51.622;7.046;2022-07-05T11:00:11;21.90;18.30
5118;DHT22;2578;51.622;7.046;2022-07-05T11:02:37;22.00;28.40
5118;DHT22;2578;51.622;7.046;2022-07-05T11:05:04;22.00;28.90
5118;DHT22;2578;51.622;7.046;2022-07-05T11:10:23;22.00;20.00
5118;DHT22;2578;51.622;7.046;2022-07-05T11:12:49;22.00;23.70
5118;DHT22;2578;51.622;7.046;2022-07-05T11:15:15;22.20;27.70
5118;DHT22;2578;51.622;7.046;2022-07-05T11:17:42;22.20;16.70
5118;DHT22;2578;51.622;7.046;2022-07-05T11:22:39;23.70;42.40
5118;DHT22;2578;51.622;7.046;2022-07-05T11:25:08;24.20;25.30
5118;DHT22;2578;51.622;7.046;2022-07-05T11:27:35;24.80;15.10
5118;DHT22;2578;51.622;7.046;2022-07-05T11:30:01;24.80;17.90
5118;DHT22;2578;51.622;7.046;2022-07-05T11:32:35;24.60;18.60
5118;DHT22;2578;51.622;7.046;2022-07-05T11:35:16;24.60;19.50
5118;DHT22;2578;51.622;7.046;2022-07-05T11:38:03;24.50;17.10
5118;DHT22;2578;51.622;7.046;2022-07-05T11:40:30;24.70;8.30
5118;DHT22;2578;51.622;7.046;2022-07-05T11:42:56;24.70;8.20
5118;DHT22;2578;51.622;7.046;2022-07-05T11:45:22;25.10;17.50
5118;DHT22;2578;51.622;7.046;2022-07-05T11:47:48;25.40;4.40
5118;DHT22;2578;51.622;7.046;2022-07-05T11:50:14;25.60;1.00
5118;DHT22;2578;51.622;7.046;2022-07-05T11:52:40;25.50;1.00
5118;DHT22;2578;51.622;7.046;2022-07-05T11:55:08;25.70;1.00
5118;DHT22;2578;51.622;7.046;2022-07-05T11:57:34;26.10;1.00
5118;DHT22;2578;51.622;7.046;2022-07-05T12:00:00;25.60;1.00
5118;DHT22;2578;51.622;7.046;2022-07-05T12:02:25;25.50;1.00
5118;DHT22;2578;51.622;7.046;2022-07-05T12:04:56;24.70;1.00
5118;DHT22;2578;51.622;7.046;2022-07-05T12:07:26;24.30;1.00
5118;DHT22;2578;51.622;7.046;2022-07-05T12:09:51;24.10;3.10
5118;DHT22;2578;51.622;7.046;2022-07-05T12:12:36;24.20;1.60
5118;DHT22;2578;51.622;7.046;2022-07-05T12:15:20;24.50;5.10
5118;DHT22;2578;51.622;7.046;2022-07-05T12:17:50;24.80;4.10
5118;DHT22;2578;51.622;7.046;2022-07-05T12:20:24;24.70;2.10
5118;DHT22;2578;51.622;7.046;2022-07-05T12:22:50;24.40;1.00
5118;DHT22;2578;51.622;7.046;2022-07-05T12:25:18;24.30;3.90
5118;DHT22;2578;51.622;7.046;2022-07-05T12:27:47;24.60;3.50
5118;DHT22;2578;51.622;7.046;2022-07-05T12:30:14;24.30;1.10
5118;DHT22;2578;51.622;7.046;2022-07-05T12:33:05;24.30;6.40
5118;DHT22;2578;51.622;7.046;2022-07-05T12:35:45;24.40;6.00
5118;DHT22;2578;51.622;7.046;2022-07-05T12:38:17;24.60;5.00
5118;DHT22;2578;51.622;7.046;2022-07-05T12:40:46;24.80;1.00
5118;DHT22;2578;51.622;7.046;2022-07-05T12:43:14;24.50;1.00
5118;DHT22;2578;51.622;7.046;2022-07-05T12:45:42;24.80;1.00
5118;DHT22;2578;51.622;7.046;2022-07-05T12:48:10;25.10;1.00
5118;DHT22;2578;51.622;7.046;2022-07-05T12:50:50;25.20;1.00
5118;DHT22;2578;51.622;7.046;2022-07-05T12:53:17;25.20;1.00
5118;DHT22;2578;51.622;7.046;2022-07-05T12:56:03;25.00;1.00
5118;DHT22;2578;51.622;7.046;2022-07-05T12:58:52;24.60;5.40
5118;DHT22;2578;51.622;7.046;2022-07-05T13:09:15;24.70;4.00
5118;DHT22;2578;51.622;7.046;2022-07-05T13:11:42;24.30;1.00
5118;DHT22;2578;51.622;7.046;2022-07-05T13:16:34;24.10;3.10
5118;DHT22;2578;51.622;7.046;2022-07-05T13:19:10;24.30;1.00
5118;DHT22;2578;51.622;7.046;2022-07-05T13:21:36;25.20;6.00
5118;DHT22;2578;51.622;7.046;2022-07-05T13:24:03;25.30;1.00
5118;DHT22;2578;51.622;7.046;2022-07-05T13:26:28;25.40;1.00
5118;DHT22;2578;51.622;7.046;2022-07-05T13:28:54;25.30;1.00
5118;DHT22;2578;51.622;7.046;2022-07-05T13:31:20;25.10;1.00
5118;DHT22;2578;51.622;7.046;2022-07-05T13:33:46;25.10;1.00
5118;DHT22;2578;51.622;7.046;2022-07-05T13:36:11;24.90;1.00
5118;DHT22;2578;51.622;7.046;2022-07-05T13:38:37;24.80;3.80
5118;DHT22;2578;51.622;7.046;2022-07-05T13:41:03;24.30;1.00
5118;DHT22;2578;51.622;7.046;2022-07-05T13:43:28;24.20;1.00
5118;DHT22;2578;51.622;7.046;2022-07-05T13:45:54;23.80;1.80
5118;DHT22;2578;51.622;7.046;2022-07-05T13:48:19;23.40;1.00
5118;DHT22;2578;51.622;7.046;2022-07-05T13:50:45;23.10;1.40
5118;DHT22;2578;51.622;7.046;2022-07-05T13:53:10;23.20;7.90
5118;DHT22;2578;51.622;7.046;2022-07-05T13:55:36;23.50;14.60
5118;DHT22;2578;51.622;7.046;2022-07-05T13:58:01;23.80;15.30
5118;DHT22;2578;51.622;7.046;2022-07-05T14:00:27;24.10;8.40
5118;DHT22;2578;51.622;7.046;2022-07-05T14:02:53;23.90;10.60
5118;DHT22;2578;51.622;7.046;2022-07-05T14:05:19;23.50;11.40
5118;DHT22;2578;51.622;7.046;2022-07-05T14:07:49;23.40;9.00
5118;DHT22;2578;51.622;7.046;2022-07-05T14:10:14;23.30;12.10
5118;DHT22;2578;51.622;7.046;2022-07-05T14:12:41;23.40;14.10
5118;DHT22;2578;51.622;7.046;2022-07-05T14:15:07;23.60;8.20
5118;DHT22;2578;51.622;7.046;2022-07-05T14:17:33;24.00;20.20
5118;DHT22;2578;51.622;7.046;2022-07-05T14:19:58;24.40;18.50
5118;DHT22;2578;51.622;7.046;2022-07-05T14:22:24;24.70;10.80
5118;DHT22;2578;51.622;7.046;2022-07-05T14:24:50;24.70;13.00
5118;DHT22;2578;51.622;7.046;2022-07-05T14:27:16;24.70;9.50
5118;DHT22;2578;51.622;7.046;2022-07-05T14:29:42;25.10;10.40
5118;DHT22;2578;51.622;7.046;2022-07-05T14:32:07;25.00;11.10
5118;DHT22;2578;51.622;7.046;2022-07-05T14:34:33;25.00;7.10
5118;DHT22;2578;51.622;7.046;2022-07-05T14:36:59;25.20;8.00
5118;DHT22;2578;51.622;7.046;2022-07-05T14:39:25;25.20;5.60
5118;DHT22;2578;51.622;7.046;2022-07-05T14:41:51;25.00;5.50
5118;DHT22;2578;51.622;7.046;2022-07-05T14:44:16;25.10;7.40
5118;DHT22;2578;51.622;7.046;2022-07-05T14:46:42;25.00;7.90
5118;DHT22;2578;51.622;7.046;2022-07-05T14:49:08;24.60;2.30
5118;DHT22;2578;51.622;7.046;2022-07-05T14:51:33;24.00;5.00
5118;DHT22;2578;51.622;7.046;2022-07-05T14:53:59;23.70;4.10
5118;DHT22;2578;51.622;7.046;2022-07-05T14:56:25;23.50;12.00
5118;DHT22;2578;51.622;7.046;2022-07-05T14:58:50;23.50;9.90
5118;DHT22;2578;51.622;7.046;2022-07-05T15:01:16;23.40;16.30
5118;DHT22;2578;51.622;7.046;2022-07-05T15:03:45;23.40;22.00
5118;DHT22;2578;51.622;7.046;2022-07-05T15:06:10;23.10;20.20
5118;DHT22;2578;51.622;7.046;2022-07-05T15:08:37;23.30;26.60
5118;DHT22;2578;51.622;7.046;2022-07-05T15:11:03;23.10;18.10
5118;DHT22;2578;51.622;7.046;2022-07-05T15:13:32;23.10;14.00
5118;DHT22;2578;51.622;7.046;2022-07-05T15:16:00;23.00;15.70
5118;DHT22;2578;51.622;7.046;2022-07-05T15:18:26;23.00;16.40
5118;DHT22;2578;51.622;7.046;2022-07-05T15:20:52;22.90;18.70
5118;DHT22;2578;51.622;7.046;2022-07-05T15:23:19;22.80;23.40
5118;DHT22;2578;51.622;7.046;2022-07-05T15:25:45;22.80;18.00
5118;DHT22;2578;51.622;7.046;2022-07-05T15:28:10;22.70;19.60
5118;DHT22;2578;51.622;7.046;2022-07-05T15:30:37;22.70;22.90
5118;DHT22;2578;51.622;7.046;2022-07-05T15:33:03;22.70;23.80
5118;DHT22;2578;51.622;7.046;2022-07-05T15:35:29;22.90;26.10
5118;DHT22;2578;51.622;7.046;2022-07-05T15:37:55;23.20;23.60
5118;DHT22;2578;51.622;7.046;2022-07-05T15:40:21;23.10;23.40
5118;DHT22;2578;51.622;7.046;2022-07-05T15:42:46;23.10;19.40
5118;DHT22;2578;51.622;7.046;2022-07-05T15:45:12;23.20;17.00
5118;DHT22;2578;51.622;7.046;2022-07-05T15:47:38;23.30;20.10
5118;DHT22;2578;51.622;7.046;2022-07-05T15:50:08;23.10;7.10
5118;DHT22;2578;51.622;7.046;2022-07-05T15:52:36;22.70;6.70
5118;DHT22;2578;51.622;7.046;2022-07-05T15:55:02;22.60;10.80
5118;DHT22;2578;51.622;7.046;2022-07-05T15:57:28;22.50;15.40
5118;DHT22;2578;51.622;7.046;2022-07-05T15:59:54;22.50;16.20
5118;DHT22;2578;51.622;7.046;2022-07-05T16:02:20;22.30;24.90
5118;DHT22;2578;51.622;7.046;2022-07-05T16:04:46;22.20;28.60
5118;DHT22;2578;51.622;7.046;2022-07-05T16:07:12;22.20;29.20
5118;DHT22;2578;51.622;7.046;2022-07-05T16:09:38;22.20;29.20
5118;DHT22;2578;51.622;7.046;2022-07-05T16:12:04;22.20;26.80
5118;DHT22;2578;51.622;7.046;2022-07-05T16:14:30;22.40;33.30
5118;DHT22;2578;51.622;7.046;2022-07-05T16:16:55;22.50;33.40
5118;DHT22;2578;51.622;7.046;2022-07-05T16:19:21;22.60;33.10
5118;DHT22;2578;51.622;7.046;2022-07-05T16:21:47;22.50;31.00
5118;DHT22;2578;51.622;7.046;2022-07-05T16:24:18;22.40;29.30
5118;DHT22;2578;51.622;7.046;2022-07-05T16:26:45;22.20;28.10
5118;DHT22;2578;51.622;7.046;2022-07-05T16:29:10;22.20;28.60
5118;DHT22;2578;51.622;7.046;2022-07-05T16:31:36;21.90;44.20
5118;DHT22;2578;51.622;7.046;2022-07-05T16:34:02;21.90;42.20
5118;DHT22;2578;51.622;7.046;2022-07-05T16:36:28;21.70;51.10
5118;DHT22;2578;51.622;7.046;2022-07-05T16:38:53;21.50;58.50
5118;DHT22;2578;51.622;7.046;2022-07-05T16:41:20;21.40;60.00